Friday, January 18, 2019, 11:14 PM EST
Back to Local

KIWI, Wiscasset Municipal Airport

Location: Wiscasset, ME, United States Lat: 43.967
Local Time: 11:14 PM EST ( 4:14 GMT) Lon: -69.717
Time Zone: US/Eastern Elev: 68 ft

Show me the last for .
Show Decoded

2019-01-18 22:53 METAR KIWI 190353Z AUTO VRB03KT 10SM OVC050 M03/M06 A3009 RMK AO2 SLP190
                 T10331061 =
2019-01-18 21:53 METAR KIWI 190253Z AUTO 00000KT 10SM BKN049 M04/M07 A3005 RMK AO2 SLP176
                 T10441067 53011 =
2019-01-18 20:53 METAR KIWI 190153Z AUTO 00000KT 10SM FEW060 M03/M07 A3004 RMK AO2 SLP172
                 T10281067 =
2019-01-18 19:53 METAR KIWI 190053Z AUTO 00000KT 10SM SCT075 OVC090 M03/M05 A3002 RMK AO2 SLP167
                 T10281050 =
2019-01-18 18:53 METAR KIWI 182353Z AUTO 00000KT 10SM OVC065 M02/M05 A3002 RMK AO2 SLP165
                 T10171050 10000 21017 58001 =
2019-01-18 17:53 METAR KIWI 182253Z AUTO 00000KT 10SM OVC045 M01/M06 A3002 RMK AO2 SLP166
                 T10111056 =
2019-01-18 17:02 METAR KIWI 182202Z AUTO 00000KT 10SM SCT027 OVC048 M01/M06 A3002 RMK AO2
                 T10111056 =
2019-01-18 16:53 METAR KIWI 182153Z AUTO 00000KT 10SM FEW025 BKN029 OVC048 M01/M06 A3002 RMK AO2
                 SLP167 T10061061 =
2019-01-18 16:48 METAR KIWI 182148Z AUTO 00000KT 10SM BKN029 BKN035 OVC048 M01/M06 A3002 RMK AO2
                 =
2019-01-18 15:53 METAR KIWI 182053Z AUTO 00000KT 10SM FEW024 SCT046 OVC055 00/M05 A3001 RMK AO2
                 SLP163 T00001050 56018 =
2019-01-18 14:53 METAR KIWI 181953Z AUTO 00000KT 10SM BKN049 OVC060 00/M05 A3002 RMK AO2 SLP166
                 T00001050 =
2019-01-18 13:53 METAR KIWI 181853Z AUTO 00000KT 10SM BKN042 OVC050 M01/M06 A3004 RMK AO2 SLP175
                 T10061056 =
2019-01-18 12:53 METAR KIWI 181753Z AUTO 00000KT 10SM OVC048 M02/M07 A3006 RMK AO2 SLP181
                 T10171072 11017 21089 58040 =
2019-01-18 11:53 METAR KIWI 181653Z AUTO 00000KT 10SM FEW039 OVC055 M02/M08 A3011 RMK AO2 SLP197
                 T10221078 =
2019-01-18 10:53 METAR KIWI 181553Z AUTO 00000KT 10SM BKN033 BKN042 OVC065 M03/M08 A3015 RMK AO2
                 SLP211 T10331083 =
2019-01-18 09:53 METAR KIWI 181453Z AUTO 00000KT 10SM FEW029 BKN036 OVC045 M04/M09 A3018 RMK AO2
                 SLP220 T10441089 58009 =
2019-01-18 08:53 METAR KIWI 181353Z AUTO 00000KT 10SM SCT042 BKN055 OVC070 M07/M11 A3019 RMK AO2
                 SLP224 T10671106 =
2019-01-18 07:53 METAR KIWI 181253Z AUTO 00000KT 10SM FEW041 BKN070 OVC095 M08/M11 A3020 RMK AO2
                 SLP227 T10781106 =
2019-01-18 06:53 METAR KIWI 181153Z AUTO 00000KT 10SM BKN041 M08/M10 A3020 RMK AO2 SLP229
                 T10831100 11033 21083 55013 =
2019-01-18 05:53 METAR KIWI 181053Z AUTO 00000KT 10SM SCT041 M07/M09 A3020 RMK AO2 SLP227
                 T10721089 =
2019-01-18 04:53 METAR KIWI 180953Z AUTO 00000KT 10SM FEW032 SCT080 OVC100 M05/M08 A3022 RMK AO2
                 SLP233 T10501078 =
2019-01-18 03:53 METAR KIWI 180853Z AUTO 19005KT 10SM OVC065 M04/M08 A3024 RMK AO2 SLP242
                 T10391078 58025 =
2019-01-18 02:53 METAR KIWI 180753Z AUTO 00000KT 10SM SCT055 OVC070 M07/M12 A3027 RMK AO2 SLP252
                 T10721117 =
2019-01-18 01:53 METAR KIWI 180653Z AUTO 00000KT 10SM OVC095 M08/M13 A3030 RMK AO2 SLP263
                 T10781128 =
2019-01-18 00:53 METAR KIWI 180553Z AUTO 00000KT 10SM FEW034 OVC110 M08/M14 A3032 RMK AO2 SLP267
                 T10831139 11083 21122 58020 =
2019-01-17 23:53 METAR KIWI 180453Z AUTO 00000KT 10SM OVC110 M09/M15 A3034 RMK AO2 SLP275
                 T10891150 410671139 =

Support USWX by starting your Amazon purchase here.